Time;durP1;ratioP1;P1;durP2;ratioP2;P2;SDS_P1;SDS_P2;PMS_P1;PMS_P2;Temp;Humidity;BMP_temperature;BMP_pressure;BME280_temperature;BME280_humidity;BME280_pressure;Samples;Min_cycle;Max_cycle;Signal;HPM_P1;HPM_P2
2024/04/08 00:01:28;;;;;;;7.90;1.45;;;;;;;14.39;96.13;96791.13;5438618;26;20003;-49
2024/04/08 00:03:54;;;;;;;11.45;2.40;;;;;;;14.34;96.74;96774.84;5448992;26;20014;-51
2024/04/08 00:06:21;;;;;;;9.52;2.50;;;;;;;14.02;100.00;96783.38;5446348;26;20021;-50
2024/04/08 00:08:48;;;;;;;8.77;2.22;;;;;;;14.03;100.00;96793.16;5461829;26;20046;-51
2024/04/08 00:11:14;;;;;;;6.32;2.28;;;;;;;13.96;100.00;96791.91;5454038;25;20492;-53
2024/04/08 00:13:41;;;;;;;7.07;2.05;;;;;;;13.93;100.00;96792.47;5458161;26;20014;-47
2024/04/08 00:16:08;;;;;;;11.98;3.83;;;;;;;13.84;100.00;96795.00;5438888;26;20077;-48
2024/04/08 00:18:34;;;;;;;9.85;2.53;;;;;;;13.89;99.94;96787.59;5435705;26;20064;-50
2024/04/08 00:21:02;;;;;;;6.95;2.10;;;;;;;13.75;100.00;96782.00;5448647;25;20017;-50
2024/04/08 00:23:28;;;;;;;8.20;2.13;;;;;;;13.70;100.00;96795.66;5443917;26;20378;-51
2024/04/08 00:25:55;;;;;;;9.57;2.55;;;;;;;13.65;100.00;96785.63;5442727;26;20063;-50
2024/04/08 00:28:22;;;;;;;5.15;1.98;;;;;;;13.62;100.00;96788.94;5458181;26;20079;-51
2024/04/08 00:30:48;;;;;;;8.40;2.08;;;;;;;13.71;100.00;96780.97;5468731;26;20013;-49
2024/04/08 00:33:15;;;;;;;10.85;2.78;;;;;;;13.62;100.00;96769.91;5450052;26;20014;-48
2024/04/08 00:35:42;;;;;;;13.55;2.78;;;;;;;13.61;100.00;96771.03;5434558;26;20702;-51
2024/04/08 00:38:08;;;;;;;11.88;2.70;;;;;;;13.58;100.00;96763.41;5449161;26;20028;-47
2024/04/08 00:40:38;;;;;;;6.63;1.90;;;;;;;13.58;100.00;96757.97;5435505;26;20014;-48
2024/04/08 00:43:07;;;;;;;8.98;2.25;;;;;;;13.43;100.00;96756.19;5463219;25;20372;-50
2024/04/08 00:45:36;;;;;;;7.10;2.35;;;;;;;13.40;100.00;96757.56;5436359;26;20013;-50
2024/04/08 00:48:04;;;;;;;8.43;2.22;;;;;;;13.24;100.00;96764.22;5448898;26;20075;-49
2024/04/08 00:50:31;;;;;;;8.93;2.50;;;;;;;13.20;100.00;96774.84;5462032;26;20007;-48
2024/04/08 00:52:58;;;;;;;6.13;1.77;;;;;;;13.13;100.00;96766.22;5440521;26;20006;-51
2024/04/08 00:55:25;;;;;;;7.25;2.13;;;;;;;13.25;100.00;96757.69;5429074;26;19999;-52
2024/04/08 00:57:52;;;;;;;6.90;2.30;;;;;;;13.29;100.00;96758.75;5462434;25;20028;-51
2024/04/08 01:00:19;;;;;;;9.57;2.30;;;;;;;13.30;100.00;96754.13;5434657;26;20002;-52
2024/04/08 01:02:46;;;;;;;6.43;2.20;;;;;;;13.10;100.00;96755.91;5436575;26;20003;-49
2024/04/08 01:05:14;;;;;;;11.95;2.63;;;;;;;13.07;100.00;96757.28;5435666;26;20014;-50
2024/04/08 01:07:45;;;;;;;8.80;1.70;;;;;;;13.25;100.00;96752.25;5434973;26;20031;-52
2024/04/08 01:10:12;;;;;;;11.70;2.13;;;;;;;13.47;100.00;96743.63;5426684;26;22314;-54
2024/04/08 01:12:41;;;;;;;6.90;1.80;;;;;;;13.23;100.00;96752.53;5421690;26;20069;-52
2024/04/08 01:15:08;;;;;;;7.72;2.15;;;;;;;13.28;100.00;96757.13;5436283;26;19999;-51
2024/04/08 01:17:35;;;;;;;8.27;2.15;;;;;;;13.26;100.00;96765.56;5423471;26;20007;-52
2024/04/08 01:20:02;;;;;;;10.93;2.25;;;;;;;13.53;100.00;96758.81;5429954;26;20008;-53
2024/04/08 01:22:31;;;;;;;7.85;2.58;;;;;;;13.76;100.00;96761.06;5434049;26;20545;-51
2024/04/08 01:24:58;;;;;;;11.35;3.10;;;;;;;13.89;100.00;96756.84;5442975;26;19999;-53
2024/04/08 01:27:26;;;;;;;7.50;2.40;;;;;;;13.90;100.00;96763.94;5411904;26;20016;-52
2024/04/08 01:29:53;;;;;;;7.25;2.00;;;;;;;13.85;100.00;96761.22;5409112;26;20529;-52
2024/04/08 01:32:19;;;;;;;12.15;2.45;;;;;;;13.83;100.00;96758.84;5423778;26;20079;-53
2024/04/08 01:34:46;;;;;;;8.55;2.38;;;;;;;13.77;100.00;96746.34;5423905;26;20532;-52
2024/04/08 01:37:13;;;;;;;10.23;2.20;;;;;;;13.71;100.00;96752.97;5421291;26;20061;-52
2024/04/08 01:39:39;;;;;;;7.78;2.00;;;;;;;13.71;100.00;96755.69;5438410;26;20019;-47
2024/04/08 01:42:06;;;;;;;7.00;2.13;;;;;;;13.74;100.00;96749.66;5410299;26;19999;-49
2024/04/08 01:44:32;;;;;;;6.93;2.22;;;;;;;13.75;100.00;96746.66;5412803;26;20461;-52
2024/04/08 01:46:59;;;;;;;9.77;2.60;;;;;;;13.54;100.00;96754.22;5429342;26;20058;-51
2024/04/08 01:49:27;;;;;;;9.93;4.38;;;;;;;13.13;100.00;96756.13;5421130;26;20000;-52
2024/04/08 01:51:54;;;;;;;9.15;2.53;;;;;;;13.20;100.00;96753.09;5426427;26;20004;-51
2024/04/08 01:54:21;;;;;;;10.68;2.83;;;;;;;13.40;100.00;96754.84;5417304;26;20065;-48
2024/04/08 01:56:48;;;;;;;9.27;2.13;;;;;;;13.67;100.00;96757.34;5415114;26;20064;-47
2024/04/08 01:59:14;;;;;;;11.95;2.88;;;;;;;13.78;100.00;96767.84;5422903;26;20086;-49
2024/04/08 02:01:41;;;;;;;5.43;1.80;;;;;;;13.78;100.00;96767.03;5429361;26;20072;-48
2024/04/08 02:04:08;;;;;;;7.65;1.92;;;;;;;13.84;100.00;96768.59;5410339;26;20003;-48
2024/04/08 02:06:35;;;;;;;10.50;2.28;;;;;;;13.81;100.00;96762.94;5421479;26;20016;-49
2024/04/08 02:09:01;;;;;;;8.30;2.00;;;;;;;13.64;100.00;96769.63;5421803;26;20104;-48
2024/04/08 02:11:28;;;;;;;11.75;2.58;;;;;;;13.30;100.00;96771.25;5423169;26;19998;-49
2024/04/08 02:13:55;;;;;;;6.88;2.00;;;;;;;13.51;100.00;96769.19;5437940;26;20069;-49
2024/04/08 02:16:21;;;;;;;9.63;2.58;;;;;;;13.70;100.00;96773.09;5426771;26;20003;-49
2024/04/08 02:18:51;;;;;;;8.77;1.77;;;;;;;13.87;99.66;96784.38;5434579;26;20007;-50
2024/04/08 02:21:18;;;;;;;10.18;1.88;;;;;;;13.69;100.00;96774.19;5443215;26;19999;-47
2024/04/08 02:23:45;;;;;;;7.18;2.40;;;;;;;13.51;100.00;96776.53;5413116;26;20007;-48
2024/04/08 02:26:11;;;;;;;9.98;2.75;;;;;;;13.46;100.00;96779.28;5432075;26;20752;-48
2024/04/08 02:28:38;;;;;;;13.82;2.75;;;;;;;13.26;100.00;96784.59;5436637;26;20011;-47
2024/04/08 02:31:05;;;;;;;6.45;2.20;;;;;;;13.13;100.00;96780.59;5433079;26;19995;-49
2024/04/08 02:33:31;;;;;;;11.63;2.25;;;;;;;13.23;100.00;96782.44;5427626;26;20015;-51
2024/04/08 02:36:04;;;;;;;8.05;1.67;;;;;;;13.15;100.00;96777.59;5408726;26;20011;-47
2024/04/08 02:38:33;;;;;;;10.05;2.10;;;;;;;13.13;100.00;96786.03;5435664;26;20720;-49
2024/04/08 02:41:00;;;;;;;12.98;2.63;;;;;;;13.07;100.00;96789.91;5443375;26;20694;-52
2024/04/08 02:43:26;;;;;;;5.82;2.47;;;;;;;12.92;100.00;96785.38;5417181;26;20365;-48
2024/04/08 02:45:54;;;;;;;10.32;2.47;;;;;;;12.90;100.00;96776.69;5408254;26;20018;-52
2024/04/08 02:48:20;;;;;;;14.98;2.33;;;;;;;12.88;100.00;96778.88;5430009;26;20459;-49
2024/04/08 02:50:47;;;;;;;12.35;2.50;;;;;;;12.85;100.00;96774.81;5419846;26;19995;-50
2024/04/08 02:53:14;;;;;;;5.03;2.55;;;;;;;12.87;100.00;96780.78;5431475;26;20652;-49
2024/04/08 02:55:40;;;;;;;7.75;2.83;;;;;;;12.78;100.00;96768.88;5434568;26;20058;-50
2024/04/08 02:58:07;;;;;;;6.53;1.85;;;;;;;12.78;100.00;96777.03;5421946;26;20009;-49
2024/04/08 03:00:40;;;;;;;8.57;2.15;;;;;;;12.70;100.00;96764.88;5429822;26;20009;-47
2024/04/08 03:03:07;;;;;;;9.65;3.13;;;;;;;12.60;100.00;96765.72;5423881;26;20512;-49
2024/04/08 03:05:33;;;;;;;12.73;2.28;;;;;;;12.55;100.00;96771.19;5444338;26;20757;-49
2024/04/08 03:08:00;;;;;;;11.57;2.72;;;;;;;12.58;100.00;96767.09;5437410;26;20076;-49
2024/04/08 03:10:27;;;;;;;8.23;1.90;;;;;;;12.57;100.00;96765.50;5426105;26;20079;-50
2024/04/08 03:12:53;;;;;;;10.35;3.03;;;;;;;12.67;100.00;96770.84;5436376;26;19995;-48
2024/04/08 03:15:20;;;;;;;9.75;2.17;;;;;;;12.75;100.00;96777.59;5430461;26;20035;-50
2024/04/08 03:17:46;;;;;;;7.10;2.55;;;;;;;12.76;100.00;96784.66;5438433;26;20008;-50
2024/04/08 03:20:13;;;;;;;6.53;1.65;;;;;;;12.92;100.00;96774.50;5430056;26;20893;-48
2024/04/08 03:22:40;;;;;;;10.93;2.15;;;;;;;12.96;100.00;96785.63;5435737;26;20424;-50
2024/04/08 03:25:07;;;;;;;13.88;3.05;;;;;;;12.72;100.00;96780.88;5435957;26;20013;-50
2024/04/08 03:27:33;;;;;;;9.27;2.15;;;;;;;12.54;100.00;96782.34;5410065;26;20008;-50
2024/04/08 03:30:00;;;;;;;10.38;2.33;;;;;;;12.55;100.00;96782.06;5431835;26;20913;-49
2024/04/08 03:32:27;;;;;;;11.70;2.20;;;;;;;12.43;100.00;96787.84;5431273;26;20064;-49
2024/04/08 03:34:53;;;;;;;7.53;2.50;;;;;;;12.51;100.00;96788.31;5438744;26;20014;-47
2024/04/08 03:37:26;;;;;;;7.65;2.20;;;;;;;12.54;100.00;96791.31;5422357;26;20009;-48
2024/04/08 03:39:52;;;;;;;8.15;2.17;;;;;;;12.33;100.00;96796.81;5407759;26;20032;-51
2024/04/08 03:42:21;;;;;;;9.07;2.20;;;;;;;12.27;100.00;96792.50;5408921;26;20359;-49
2024/04/08 03:44:48;;;;;;;11.25;2.28;;;;;;;12.21;100.00;96793.59;5427189;26;20009;-51
2024/04/08 03:47:15;;;;;;;7.18;1.98;;;;;;;12.20;100.00;96787.34;5435512;26;20564;-53
2024/04/08 03:49:42;;;;;;;7.25;1.90;;;;;;;12.26;100.00;96790.03;5439638;26;20015;-50
2024/04/08 03:52:09;;;;;;;7.97;2.10;;;;;;;12.34;100.00;96792.19;5423486;26;20017;-49
2024/04/08 03:54:35;;;;;;;9.68;2.45;;;;;;;12.45;100.00;96791.06;5429762;26;20096;-50
2024/04/08 03:57:02;;;;;;;10.75;1.77;;;;;;;12.51;100.00;96791.84;5430100;26;20509;-48
2024/04/08 03:59:29;;;;;;;10.57;3.22;;;;;;;12.57;100.00;96798.88;5441092;26;20000;-50
2024/04/08 04:01:57;;;;;;;6.38;2.20;;;;;;;12.55;100.00;96794.81;5429762;26;20031;-48
2024/04/08 04:04:24;;;;;;;12.05;2.17;;;;;;;12.41;100.00;96791.88;5436081;26;20518;-49
2024/04/08 04:06:51;;;;;;;6.95;2.05;;;;;;;12.25;100.00;96789.25;5421503;26;20000;-48
2024/04/08 04:09:17;;;;;;;10.88;1.70;;;;;;;12.23;100.00;96788.69;5426044;26;20003;-49
2024/04/08 04:11:44;;;;;;;7.60;1.98;;;;;;;12.38;100.00;96789.75;5436621;26;20037;-48
2024/04/08 04:14:10;;;;;;;9.70;2.10;;;;;;;12.47;100.00;96790.78;5430220;26;20002;-49
2024/04/08 04:16:37;;;;;;;15.90;3.08;;;;;;;12.23;100.00;96783.28;5425877;26;20480;-50
2024/04/08 04:19:04;;;;;;;10.55;2.30;;;;;;;12.03;100.00;96779.53;5428362;26;19995;-51
2024/04/08 04:21:30;;;;;;;7.82;2.13;;;;;;;12.09;100.00;96785.78;5413294;26;19999;-51
2024/04/08 04:23:57;;;;;;;9.65;2.78;;;;;;;12.04;100.00;96786.56;5443951;26;20723;-50
2024/04/08 04:26:24;;;;;;;10.07;2.20;;;;;;;12.03;100.00;96789.56;5434632;26;20062;-51
2024/04/08 04:28:50;;;;;;;9.60;2.53;;;;;;;12.08;100.00;96787.69;5432983;26;19995;-51
2024/04/08 04:31:17;;;;;;;8.05;1.80;;;;;;;12.25;100.00;96797.41;5435434;26;20026;-53
2024/04/08 04:33:44;;;;;;;9.40;2.00;;;;;;;12.19;100.00;96788.44;5433987;26;20466;-49
2024/04/08 04:36:10;;;;;;;9.45;2.47;;;;;;;12.02;100.00;96796.06;5434442;26;20009;-51
2024/04/08 04:38:37;;;;;;;10.90;2.17;;;;;;;12.00;100.00;96792.81;5428341;26;20006;-51
2024/04/08 04:41:05;;;;;;;11.93;2.20;;;;;;;11.99;100.00;96789.31;5428874;26;20538;-50
2024/04/08 04:43:32;;;;;;;12.75;2.50;;;;;;;12.01;100.00;96795.25;5416637;26;20011;-49
2024/04/08 04:45:59;;;;;;;8.15;2.28;;;;;;;12.08;100.00;96798.53;5434976;26;20067;-50
2024/04/08 04:48:26;;;;;;;10.55;2.30;;;;;;;12.02;100.00;96791.44;5428958;26;20039;-49
2024/04/08 04:50:53;;;;;;;11.25;2.58;;;;;;;11.93;100.00;96796.63;5431353;26;20019;-48
2024/04/08 04:53:20;;;;;;;4.80;2.00;;;;;;;11.98;100.00;96787.69;5417382;26;20745;-50
2024/04/08 04:55:53;;;;;;;10.57;2.28;;;;;;;12.10;100.00;96792.84;5414345;26;20081;-48
2024/04/08 04:58:21;;;;;;;8.77;3.10;;;;;;;12.20;100.00;96794.69;5420391;26;20181;-50
2024/04/08 05:00:49;;;;;;;9.70;2.67;;;;;;;12.10;100.00;96785.47;5412712;26;20084;-47
2024/04/08 05:03:17;;;;;;;14.23;2.40;;;;;;;12.02;100.00;96783.31;5420988;26;20011;-50
2024/04/08 05:05:53;;;;;;;11.10;3.30;;;;;;;11.89;100.00;96792.03;5424762;26;20010;-52
2024/04/08 05:08:20;;;;;;;18.08;3.53;;;;;;;11.94;100.00;96792.84;5423696;26;20512;-48
2024/04/08 05:10:47;;;;;;;11.68;2.40;;;;;;;11.94;100.00;96790.13;5424852;26;20016;-52
2024/04/08 05:13:16;;;;;;;10.90;2.97;;;;;;;11.88;100.00;96791.22;5430514;26;20736;-50
2024/04/08 05:15:53;;;;;;;10.98;2.20;;;;;;;11.79;100.00;96790.97;5422148;26;20000;-52
2024/04/08 05:18:20;;;;;;;8.82;2.20;;;;;;;11.76;100.00;96799.66;5420632;26;20775;-51
2024/04/08 05:20:46;;;;;;;7.35;2.42;;;;;;;11.84;100.00;96809.94;5414957;26;19999;-48
2024/04/08 05:23:14;;;;;;;13.15;2.78;;;;;;;11.86;100.00;96806.94;5418152;26;20047;-51
2024/04/08 05:25:41;;;;;;;8.10;1.92;;;;;;;11.91;100.00;96817.00;5429082;26;20011;-52
2024/04/08 05:28:08;;;;;;;9.82;2.38;;;;;;;11.98;100.00;96820.25;5423702;26;20014;-51
2024/04/08 05:30:34;;;;;;;10.13;2.25;;;;;;;12.03;100.00;96825.66;5385175;26;20136;-51
2024/04/08 05:33:01;;;;;;;7.50;1.98;;;;;;;12.17;100.00;96830.53;5420058;26;20026;-49
2024/04/08 05:35:28;;;;;;;14.02;2.47;;;;;;;12.31;100.00;96828.06;5424131;26;20136;-51
2024/04/08 05:37:55;;;;;;;8.82;2.58;;;;;;;12.15;100.00;96832.69;5429388;26;20692;-48
2024/04/08 05:40:21;;;;;;;8.05;2.25;;;;;;;12.00;100.00;96828.91;5430691;26;20006;-50
2024/04/08 05:42:48;;;;;;;8.38;2.45;;;;;;;12.09;100.00;96832.72;5428550;26;20003;-48
2024/04/08 05:45:15;;;;;;;10.25;2.25;;;;;;;12.20;100.00;96824.56;5414852;26;20074;-49
2024/04/08 05:47:42;;;;;;;9.65;2.33;;;;;;;12.30;100.00;96823.69;5426132;26;20019;-48
2024/04/08 05:50:09;;;;;;;10.40;2.78;;;;;;;12.45;100.00;96820.94;5422304;26;19999;-53
2024/04/08 05:52:35;;;;;;;10.27;2.70;;;;;;;12.48;100.00;96825.00;5419947;26;20481;-48
2024/04/08 05:55:02;;;;;;;11.60;2.80;;;;;;;12.53;100.00;96826.88;5431738;26;20787;-49
2024/04/08 05:57:29;;;;;;;13.05;3.00;;;;;;;12.51;100.00;96818.19;5417571;26;20050;-48
2024/04/08 05:59:56;;;;;;;12.27;2.53;;;;;;;12.51;100.00;96816.28;5413739;26;20084;-52
2024/04/08 06:02:22;;;;;;;10.07;3.15;;;;;;;12.43;100.00;96814.97;5425744;26;20059;-51
2024/04/08 06:04:53;;;;;;;12.95;2.65;;;;;;;12.46;100.00;96813.59;5414599;26;20018;-51
2024/04/08 06:07:20;;;;;;;7.43;2.13;;;;;;;12.44;100.00;96810.34;5432822;26;20561;-51
2024/04/08 06:09:46;;;;;;;11.50;2.60;;;;;;;12.57;100.00;96819.81;5429006;26;20076;-52
2024/04/08 06:12:13;;;;;;;10.32;2.35;;;;;;;12.67;100.00;96813.50;5431754;26;20018;-49
2024/04/08 06:14:40;;;;;;;10.63;2.92;;;;;;;12.65;100.00;96815.69;5420903;26;20010;-52
2024/04/08 06:17:06;;;;;;;6.03;2.33;;;;;;;12.70;100.00;96818.38;5421573;26;20010;-53
2024/04/08 06:19:33;;;;;;;7.32;2.78;;;;;;;12.70;100.00;96821.09;5435640;26;19999;-49
2024/04/08 06:21:59;;;;;;;10.60;2.47;;;;;;;12.78;100.00;96825.16;5431726;26;20009;-50
2024/04/08 06:24:27;;;;;;;14.20;2.92;;;;;;;12.88;100.00;96827.78;5419176;26;20083;-49
2024/04/08 06:26:53;;;;;;;8.63;2.42;;;;;;;12.98;100.00;96822.28;5425606;26;20006;-49
2024/04/08 06:29:20;;;;;;;15.02;2.45;;;;;;;13.01;100.00;96824.44;5420817;26;20007;-53
2024/04/08 06:31:48;;;;;;;13.10;3.42;;;;;;;13.16;100.00;96822.72;5435289;26;20021;-47
2024/04/08 06:34:15;;;;;;;9.88;2.45;;;;;;;13.30;100.00;96831.06;5419507;26;20000;-49
2024/04/08 06:36:42;;;;;;;8.35;2.70;;;;;;;13.45;100.00;96823.88;5413758;26;20538;-49
2024/04/08 06:39:08;;;;;;;8.82;2.78;;;;;;;13.58;100.00;96825.97;5428666;26;20099;-50
2024/04/08 06:41:36;;;;;;;8.23;3.55;;;;;;;13.72;100.00;96819.88;5428211;26;20014;-48
2024/04/08 06:44:04;;;;;;;15.70;4.55;;;;;;;13.82;100.00;96822.50;5420907;26;20454;-51
2024/04/08 06:46:30;;;;;;;7.97;2.33;;;;;;;13.99;100.00;96826.69;5446085;26;20018;-48
2024/04/08 06:48:57;;;;;;;12.65;2.70;;;;;;;14.16;100.00;96824.31;5432111;26;20013;-49
2024/04/08 06:51:24;;;;;;;14.95;2.58;;;;;;;14.37;100.00;96836.94;5420814;26;20003;-49
2024/04/08 06:53:50;;;;;;;12.50;3.50;;;;;;;14.47;100.00;96825.06;5429806;26;20010;-48
2024/04/08 06:56:17;;;;;;;13.00;2.80;;;;;;;14.54;100.00;96833.72;5427687;26;21013;-47
2024/04/08 06:58:44;;;;;;;11.23;2.58;;;;;;;14.66;100.00;96836.00;5409132;26;20003;-51
2024/04/08 07:01:10;;;;;;;14.25;2.35;;;;;;;14.77;100.00;96820.38;5427548;26;20017;-49
2024/04/08 07:03:37;;;;;;;8.05;2.17;;;;;;;14.83;100.00;96809.09;5428924;26;20013;-47
2024/04/08 07:06:04;;;;;;;7.63;2.20;;;;;;;14.94;100.00;96804.34;5419858;26;20718;-51
2024/04/08 07:08:30;;;;;;;9.45;2.17;;;;;;;15.04;100.00;96808.81;5423463;26;20023;-49
2024/04/08 07:10:57;;;;;;;8.20;2.38;;;;;;;15.17;99.31;96809.19;5422010;26;20009;-47
2024/04/08 07:13:24;;;;;;;8.45;2.10;;;;;;;15.29;97.43;96808.75;5432460;26;20039;-48
2024/04/08 07:15:55;;;;;;;13.63;3.00;;;;;;;15.45;93.67;96806.59;5434408;26;20076;-51
2024/04/08 07:18:23;;;;;;;12.40;2.25;;;;;;;15.60;90.42;96798.13;5418459;26;20073;-50
2024/04/08 07:20:49;;;;;;;12.05;2.15;;;;;;;15.78;86.20;96797.56;5427146;26;20006;-52
2024/04/08 07:23:16;;;;;;;8.98;1.95;;;;;;;15.99;84.20;96796.13;5415807;26;20054;-52
2024/04/08 07:25:44;;;;;;;14.35;1.90;;;;;;;16.21;81.33;96799.25;5404841;26;20003;-51
2024/04/08 07:28:11;;;;;;;11.80;2.47;;;;;;;16.37;77.73;96792.38;5424882;26;20350;-51
2024/04/08 07:30:40;;;;;;;6.05;2.53;;;;;;;16.64;75.94;96790.75;5422799;26;20011;-52
2024/04/08 07:33:07;;;;;;;8.80;1.98;;;;;;;16.90;74.72;96795.66;5423962;26;20018;-51
2024/04/08 07:35:33;;;;;;;8.18;1.60;;;;;;;17.09;69.68;96789.25;5430095;26;19998;-51
2024/04/08 07:38:00;;;;;;;8.52;1.77;;;;;;;17.25;69.38;96788.91;5416519;26;20003;-52
2024/04/08 07:40:27;;;;;;;9.27;1.65;;;;;;;17.47;69.28;96785.34;5419273;26;20013;-50
2024/04/08 07:42:53;;;;;;;11.40;1.95;;;;;;;17.63;67.04;96788.53;5425339;26;20007;-51
2024/04/08 07:45:20;;;;;;;11.43;1.67;;;;;;;17.79;66.31;96779.88;5422660;26;19999;-50
2024/04/08 07:47:47;;;;;;;8.05;1.63;;;;;;;17.93;64.52;96782.56;5421581;26;20742;-50
2024/04/08 07:50:14;;;;;;;6.97;1.63;;;;;;;18.02;65.20;96794.34;5419096;26;20044;-50
2024/04/08 07:52:40;;;;;;;8.70;2.05;;;;;;;18.16;63.10;96796.19;5418490;26;20007;-47
2024/04/08 07:55:07;;;;;;;11.18;2.47;;;;;;;18.29;63.82;96794.50;5417262;26;20011;-52
2024/04/08 07:57:34;;;;;;;7.50;1.60;;;;;;;18.44;61.16;96802.28;5414237;26;20011;-49
2024/04/08 08:00:01;;;;;;;9.77;1.95;;;;;;;18.49;60.63;96797.75;5419468;26;20014;-50
2024/04/08 08:02:35;;;;;;;8.55;1.67;;;;;;;18.59;60.51;96800.22;5426115;26;20015;-50
2024/04/08 08:05:02;;;;;;;4.78;1.80;;;;;;;18.68;59.58;96800.22;5420513;26;20479;-51
2024/04/08 08:07:30;;;;;;;7.60;2.35;;;;;;;18.79;58.96;96801.56;5419303;26;20065;-51
2024/04/08 08:09:57;;;;;;;9.05;1.98;;;;;;;18.90;57.84;96810.28;5425215;26;20051;-53
2024/04/08 08:12:23;;;;;;;9.40;1.70;;;;;;;18.98;57.22;96803.19;5416952;26;20014;-50
2024/04/08 08:14:50;;;;;;;7.60;2.00;;;;;;;19.09;58.67;96803.72;5432387;26;20007;-52
2024/04/08 08:17:16;;;;;;;8.23;1.75;;;;;;;19.16;56.17;96790.31;5430043;26;20007;-52
2024/04/08 08:19:43;;;;;;;11.18;2.17;;;;;;;19.29;56.01;96782.25;5417620;26;20003;-53
2024/04/08 08:22:10;;;;;;;8.23;1.58;;;;;;;19.34;56.32;96776.59;5426486;26;20025;-51
2024/04/08 08:24:37;;;;;;;10.63;1.83;;;;;;;19.42;55.58;96789.50;5418492;26;20817;-51
2024/04/08 08:27:03;;;;;;;5.88;1.40;;;;;;;19.55;52.09;96786.91;5418716;26;20010;-53
2024/04/08 08:29:30;;;;;;;8.48;1.60;;;;;;;19.68;52.58;96793.34;5435966;26;19999;-50
2024/04/08 08:31:57;;;;;;;13.18;1.65;;;;;;;19.81;52.55;96795.09;5426412;26;20014;-52
2024/04/08 08:34:27;;;;;;;8.13;1.88;;;;;;;19.93;49.54;96790.88;5433125;26;20425;-50
2024/04/08 08:36:53;;;;;;;9.40;1.55;;;;;;;20.05;49.21;96791.00;5426464;26;20507;-49
2024/04/08 08:39:20;;;;;;;7.38;2.63;;;;;;;20.16;49.78;96788.69;5416211;26;20013;-50
2024/04/08 08:41:52;;;;;;;8.95;1.35;;;;;;;20.24;47.21;96781.56;5431567;26;20017;-50
2024/04/08 08:44:20;;;;;;;7.55;1.45;;;;;;;20.35;45.86;96784.75;5419645;26;21278;-49
2024/04/08 08:46:47;;;;;;;5.55;1.38;;;;;;;20.45;47.52;96770.63;5427739;26;20073;-49
2024/04/08 08:49:18;;;;;;;10.88;2.08;;;;;;;20.53;48.77;96772.50;5423819;26;20019;-52
2024/04/08 08:51:45;;;;;;;6.95;1.70;;;;;;;20.63;46.96;96770.50;5422873;26;20010;-47
2024/04/08 08:54:12;;;;;;;7.75;1.42;;;;;;;20.70;43.66;96770.78;5423935;26;20000;-49
2024/04/08 08:56:38;;;;;;;2.78;1.02;;;;;;;20.81;43.19;96771.22;5425713;26;20007;-52
2024/04/08 08:59:07;;;;;;;7.25;1.67;;;;;;;20.95;44.81;96768.22;5425049;26;20010;-53
2024/04/08 09:01:33;;;;;;;8.68;1.70;;;;;;;21.08;44.90;96771.06;5418988;26;20335;-49
2024/04/08 09:04:03;;;;;;;9.52;1.80;;;;;;;21.19;43.75;96766.72;5422836;26;20011;-52
2024/04/08 09:06:36;;;;;;;9.15;2.92;;;;;;;21.18;42.92;96776.13;5408671;26;20152;-52
2024/04/08 09:09:04;;;;;;;10.43;1.58;;;;;;;21.21;42.28;96771.91;5424078;26;20069;-51
2024/04/08 09:11:31;;;;;;;7.35;1.38;;;;;;;21.32;43.57;96775.88;5407013;26;20891;-52
2024/04/08 09:14:07;;;;;;;9.95;1.85;;;;;;;21.43;43.88;96774.31;5416988;26;20039;-51
2024/04/08 09:16:34;;;;;;;9.48;1.23;;;;;;;21.51;42.75;96771.78;5429859;26;20085;-48
2024/04/08 09:19:01;;;;;;;9.40;1.52;;;;;;;21.55;42.94;96772.72;5413685;26;20011;-50
2024/04/08 09:21:28;;;;;;;9.65;1.33;;;;;;;21.52;41.76;96768.72;5410779;26;20010;-48
2024/04/08 09:24:05;;;;;;;9.63;1.40;;;;;;;21.75;43.56;96768.38;5424767;26;20000;-52
2024/04/08 09:26:32;;;;;;;6.82;1.33;;;;;;;21.80;42.74;96765.38;5406847;26;20003;-50
2024/04/08 09:29:00;;;;;;;11.07;1.50;;;;;;;21.83;40.81;96766.66;5410531;26;19999;-52
2024/04/08 09:31:27;;;;;;;13.48;3.78;;;;;;;21.90;41.55;96766.91;5417527;26;20019;-52
2024/04/08 09:33:54;;;;;;;8.98;1.75;;;;;;;21.95;40.11;96771.38;5413093;26;20011;-50
2024/04/08 09:36:22;;;;;;;5.55;1.55;;;;;;;22.07;41.37;96774.16;5417089;26;20038;-52
2024/04/08 09:38:50;;;;;;;7.10;1.60;;;;;;;22.06;39.93;96764.28;5417731;26;20071;-56
2024/04/08 09:41:17;;;;;;;7.70;1.58;;;;;;;22.26;41.72;96764.50;5431490;26;20038;-51
2024/04/08 09:43:45;;;;;;;15.98;1.50;;;;;;;22.24;40.73;96768.75;5410961;26;20077;-50
2024/04/08 09:46:13;;;;;;;8.43;1.80;;;;;;;22.27;38.82;96771.66;5422387;26;20007;-50
2024/04/08 09:48:40;;;;;;;9.35;1.50;;;;;;;22.44;39.90;96767.06;5417065;26;20014;-49
2024/04/08 09:51:09;;;;;;;5.25;1.25;;;;;;;22.53;39.33;96756.69;5422139;26;20017;-53
2024/04/08 09:53:36;;;;;;;6.22;1.15;;;;;;;22.44;39.87;96762.31;5417559;26;20699;-52
2024/04/08 09:56:10;;;;;;;4.20;1.15;;;;;;;22.65;40.74;96757.84;5412588;26;20010;-50
2024/04/08 09:58:39;;;;;;;9.02;1.83;;;;;;;22.66;41.17;96751.19;5423615;26;20385;-50
2024/04/08 10:01:11;;;;;;;9.27;1.52;;;;;;;22.60;39.72;96745.13;5426475;26;20011;-52
2024/04/08 10:03:45;;;;;;;7.93;1.75;;;;;;;22.66;38.06;96748.44;5407882;26;20006;-51
2024/04/08 10:06:12;;;;;;;8.68;1.75;;;;;;;22.78;38.87;96758.66;5433990;26;20037;-50
2024/04/08 10:08:39;;;;;;;8.63;1.63;;;;;;;22.88;38.31;96763.66;5407882;26;20045;-51
2024/04/08 10:11:07;;;;;;;9.30;1.65;;;;;;;22.85;38.13;96753.34;5416218;26;19996;-52
2024/04/08 10:13:47;;;;;;;10.30;1.52;;;;;;;22.91;36.24;96762.16;5426754;26;20601;-51
2024/04/08 10:16:14;;;;;;;7.78;1.50;;;;;;;22.95;35.93;96761.13;5421167;26;20003;-52
2024/04/08 10:18:52;;;;;;;7.82;1.63;;;;;;;23.06;36.09;96763.41;5414149;26;19999;-52
2024/04/08 10:21:19;;;;;;;7.40;1.20;;;;;;;23.18;34.35;96757.06;5413752;26;20645;-51
2024/04/08 10:23:46;;;;;;;6.15;1.42;;;;;;;23.41;38.24;96751.00;5410722;26;20013;-52
2024/04/08 10:26:15;;;;;;;6.45;1.42;;;;;;;23.53;36.53;96759.22;5430540;26;20002;-51
2024/04/08 10:28:42;;;;;;;7.57;1.50;;;;;;;23.62;36.98;96750.78;5414087;26;20018;-53
2024/04/08 10:31:11;;;;;;;9.32;1.52;;;;;;;23.71;34.57;96750.63;5419675;26;20003;-54
2024/04/08 10:33:38;;;;;;;10.25;1.40;;;;;;;23.82;35.85;96742.59;5433927;26;20003;-53
2024/04/08 10:36:05;;;;;;;7.47;1.98;;;;;;;23.96;35.12;96740.22;5417953;26;20008;-50
2024/04/08 10:38:31;;;;;;;8.40;1.70;;;;;;;24.24;34.65;96728.28;5422105;26;20745;-51
2024/04/08 10:41:05;;;;;;;7.35;1.40;;;;;;;24.39;32.83;96718.34;5431000;26;20075;-54
2024/04/08 10:43:33;;;;;;;6.25;2.10;;;;;;;24.31;32.72;96718.53;5430377;26;20727;-50
2024/04/08 10:46:05;;;;;;;9.70;1.52;;;;;;;24.19;31.87;96723.03;5416993;26;20018;-53
2024/04/08 10:48:39;;;;;;;;;;;;;;;24.29;31.33;96719.69;5412743;26;20003;-53
2024/04/08 10:51:09;;;;;;;5.68;1.25;;;;;;;24.26;31.43;96719.63;5432536;26;19924;-52
2024/04/08 10:53:39;;;;;;;8.80;1.67;;;;;;;24.37;32.84;96723.47;5431855;26;20006;-50
2024/04/08 10:56:07;;;;;;;10.63;1.70;;;;;;;24.57;34.11;96717.16;5414574;26;20306;-51
2024/04/08 10:58:34;;;;;;;5.43;1.20;;;;;;;24.80;33.05;96722.78;5433637;26;20799;-47
2024/04/08 11:01:04;;;;;;;8.98;1.75;;;;;;;25.05;31.44;96722.56;5411601;26;20011;-52
2024/04/08 11:03:31;;;;;;;8.15;1.83;;;;;;;25.02;30.94;96721.31;5420501;26;20011;-52
2024/04/08 11:05:58;;;;;;;9.85;2.08;;;;;;;25.14;32.51;96725.91;5415513;26;20650;-48
2024/04/08 11:08:24;;;;;;;10.32;1.40;;;;;;;25.33;32.01;96722.31;5414421;26;20007;-51
2024/04/08 11:10:52;;;;;;;8.35;1.58;;;;;;;25.65;30.83;96726.91;5425829;26;20016;-47
2024/04/08 11:13:19;;;;;;;9.23;1.83;;;;;;;25.54;30.76;96720.34;5432107;26;20031;-51
2024/04/08 11:15:49;;;;;;;10.05;2.78;;;;;;;25.47;29.74;96732.09;5428204;26;20015;-51
2024/04/08 11:18:18;;;;;;;7.80;1.42;;;;;;;25.47;30.49;96723.78;5418317;26;20460;-51
2024/04/08 11:20:45;;;;;;;8.40;1.80;;;;;;;25.45;29.80;96729.69;5413394;26;20455;-51
2024/04/08 11:23:14;;;;;;;12.80;1.65;;;;;;;25.50;30.31;96731.34;5421847;26;19999;-52
2024/04/08 11:25:40;;;;;;;8.00;1.52;;;;;;;25.49;28.52;96731.72;5417977;26;20694;-51
2024/04/08 11:28:08;;;;;;;20.33;2.35;;;;;;;25.20;29.61;96732.75;5423610;26;20574;-52